Accueil
METAR-TAF:

METAR-TAF

Aéroports :

Aéroport de Touggourt - Sidi Mahdi

Touggourt, Algérie

latitude: 33-07N, longitude: 006-08E, altitude: 85 m

Observation

Le bulletin a été fait il y a 46 minutes, à 08:00 UTC
Vent 5 kt de sud/sud-est
Température 27°C
Humidité 34%
Pression 1017 hPa
Visibilité 10 km ou plus
Nuages fragmentés à une hauteur de 4000 ft

METAR: DAUK 290800Z 15005KT 9999 BKN040 27/10 Q1017

Heure: 09:46 (08:46 UTC)

Prévision

Le bulletin a été fait il y a 3 heures et 46 minutes, à 05:00 UTC
Prévision valable du 29 à 06 UTC au 29 à 15 UTC
Vent 8 kt de est/sud-est
Visibilité 10 km ou plus
Quelques nuages à une hauteur de 4000 ft
Nuages épars à une hauteur de 10000 ft
Probabilité 30% :
Temporairement
du 29 à 06 UTC au 29 à 12 UTC
Quelques nuages à une hauteur de 4000 ft, Cumulus congestus.

TAF: DAUK 290500Z 2906/2915 11008KT 9999 FEW040 SCT100 PROB30 TEMPO 2906/2912 FEW040TCU

Observations et prévisions météorologiques de plus de 4000 aéroports (messages METAR et TAF).

Les stations disponibles sont représentées par des disques jaunes et rouges sur la carte.

Passer la souris dessus pour voir le nom de la station.

Cliquer dessus pour voir les observations et prévisions météorologiques.

Pour changer de carte: cliquez sur les boutons verts avec une croix noire pour zoomer, sur le bouton vert avec un tiret pour effectuer un zoom arrière, ou sur les flèches vertes pour les cartes adjacentes.


METAR-TAF: